sensor_id;sensor_type;location;lat;lon;timestamp;pressure;altitude;pressure_sealevel;temperature;humidity
49627;BME280;35527;54.616;39.786;2023-05-07T00:02:28;100863.56;;;0.64;68.15
49627;BME280;35527;54.616;39.786;2023-05-07T00:05:34;100889.25;;;0.76;67.97
49627;BME280;35527;54.616;39.786;2023-05-07T00:08:41;100878.75;;;0.59;68.46
49627;BME280;35527;54.616;39.786;2023-05-07T00:11:45;100891.53;;;0.62;69.45
49627;BME280;35527;54.616;39.786;2023-05-07T00:14:49;100894.88;;;0.60;69.48
49627;BME280;35527;54.616;39.786;2023-05-07T00:17:56;100891.53;;;0.61;69.22
49627;BME280;35527;54.616;39.786;2023-05-07T00:21:03;100894.03;;;0.59;69.80
49627;BME280;35527;54.616;39.786;2023-05-07T00:24:07;100890.72;;;0.63;69.92
49627;BME280;35527;54.616;39.786;2023-05-07T00:27:10;100876.72;;;0.41;70.11
49627;BME280;35527;54.616;39.786;2023-05-07T00:30:13;100860.59;;;0.42;70.27
49627;BME280;35527;54.616;39.786;2023-05-07T00:33:42;100885.47;;;0.56;70.36
49627;BME280;35527;54.616;39.786;2023-05-07T00:36:45;100883.56;;;0.45;70.80
49627;BME280;35527;54.616;39.786;2023-05-07T00:39:49;100881.91;;;0.46;71.81
49627;BME280;35527;54.616;39.786;2023-05-07T00:42:52;100901.59;;;0.56;72.36
49627;BME280;35527;54.616;39.786;2023-05-07T00:46:01;100897.44;;;0.60;72.45
49627;BME280;35527;54.616;39.786;2023-05-07T00:49:06;100892.88;;;0.43;72.83
49627;BME280;35527;54.616;39.786;2023-05-07T00:52:11;100889.38;;;0.38;74.11
49627;BME280;35527;54.616;39.786;2023-05-07T00:55:16;100889.38;;;0.38;74.52
49627;BME280;35527;54.616;39.786;2023-05-07T00:58:24;100888.72;;;0.49;73.77
49627;BME280;35527;54.616;39.786;2023-05-07T01:01:31;100891.41;;;0.55;73.64
49627;BME280;35527;54.616;39.786;2023-05-07T01:04:36;100904.59;;;0.35;74.38
49627;BME280;35527;54.616;39.786;2023-05-07T01:07:40;100908.84;;;0.35;75.40
49627;BME280;35527;54.616;39.786;2023-05-07T01:11:13;100893.63;;;0.38;74.51
49627;BME280;35527;54.616;39.786;2023-05-07T01:14:17;100890.22;;;0.39;75.26
49627;BME280;35527;54.616;39.786;2023-05-07T01:17:21;100883.34;;;0.33;74.85
49627;BME280;35527;54.616;39.786;2023-05-07T01:20:25;100904.84;;;0.48;75.30
49627;BME280;35527;54.616;39.786;2023-05-07T01:23:30;100908.97;;;0.42;76.50
49627;BME280;35527;54.616;39.786;2023-05-07T01:26:37;100908.09;;;0.40;75.78
49627;BME280;35527;54.616;39.786;2023-05-07T01:29:41;100919.09;;;0.38;76.77
49627;BME280;35527;54.616;39.786;2023-05-07T01:32:52;100917.34;;;0.37;77.37
49627;BME280;35527;54.616;39.786;2023-05-07T01:35:56;100907.75;;;0.24;77.05
49627;BME280;35527;54.616;39.786;2023-05-07T01:39:02;100919.88;;;0.35;77.71
49627;BME280;35527;54.616;39.786;2023-05-07T01:42:07;100937.47;;;0.23;78.33
49627;BME280;35527;54.616;39.786;2023-05-07T01:45:10;100920.16;;;0.08;78.93
49627;BME280;35527;54.616;39.786;2023-05-07T01:48:17;100912.56;;;0.10;79.62
49627;BME280;35527;54.616;39.786;2023-05-07T01:51:23;100932.28;;;0.20;79.98
49627;BME280;35527;54.616;39.786;2023-05-07T01:54:31;100937.47;;;0.25;79.28
49627;BME280;35527;54.616;39.786;2023-05-07T01:57:36;100942.66;;;0.29;79.28
49627;BME280;35527;54.616;39.786;2023-05-07T02:00:43;100945.34;;;0.35;79.11
49627;BME280;35527;54.616;39.786;2023-05-07T02:03:47;100923.06;;;0.25;79.07
49627;BME280;35527;54.616;39.786;2023-05-07T02:06:56;100922.19;;;0.25;78.79
49627;BME280;35527;54.616;39.786;2023-05-07T02:10:00;100945.16;;;0.28;79.23
49627;BME280;35527;54.616;39.786;2023-05-07T02:13:08;100947.00;;;0.33;78.65
49627;BME280;35527;54.616;39.786;2023-05-07T02:16:14;100925.81;;;0.36;78.34
49627;BME280;35527;54.616;39.786;2023-05-07T02:19:18;100944.84;;;0.52;77.96
49627;BME280;35527;54.616;39.786;2023-05-07T02:22:23;100942.47;;;0.61;77.29
49627;BME280;35527;54.616;39.786;2023-05-07T02:25:28;100949.41;;;0.70;76.76
49627;BME280;35527;54.616;39.786;2023-05-07T02:28:35;100965.78;;;0.81;76.13
49627;BME280;35527;54.616;39.786;2023-05-07T02:31:40;100957.34;;;0.85;75.81
49627;BME280;35527;54.616;39.786;2023-05-07T02:34:45;100972.78;;;0.93;75.35
49627;BME280;35527;54.616;39.786;2023-05-07T02:37:48;100975.41;;;0.96;74.99
49627;BME280;35527;54.616;39.786;2023-05-07T02:40:52;100971.38;;;1.07;75.12
49627;BME280;35527;54.616;39.786;2023-05-07T02:43:56;100977.41;;;1.13;74.39
49627;BME280;35527;54.616;39.786;2023-05-07T02:46:59;100961.31;;;1.16;74.05
49627;BME280;35527;54.616;39.786;2023-05-07T02:50:05;100967.06;;;1.06;74.75
49627;BME280;35527;54.616;39.786;2023-05-07T02:53:09;100980.47;;;1.41;74.02
49627;BME280;35527;54.616;39.786;2023-05-07T02:56:12;100985.00;;;1.59;72.66
49627;BME280;35527;54.616;39.786;2023-05-07T02:59:16;100971.50;;;1.63;71.87
49627;BME280;35527;54.616;39.786;2023-05-07T03:02:22;100974.19;;;1.74;70.94
49627;BME280;35527;54.616;39.786;2023-05-07T03:05:27;100993.28;;;1.99;69.93
49627;BME280;35527;54.616;39.786;2023-05-07T03:08:29;100969.50;;;2.01;68.80
49627;BME280;35527;54.616;39.786;2023-05-07T03:11:32;100992.66;;;2.14;68.31
49627;BME280;35527;54.616;39.786;2023-05-07T03:14:37;101000.34;;;2.17;68.52
49627;BME280;35527;54.616;39.786;2023-05-07T03:17:41;100991.38;;;2.45;67.93
49627;BME280;35527;54.616;39.786;2023-05-07T03:20:46;100994.34;;;3.63;66.37
49627;BME280;35527;54.616;39.786;2023-05-07T03:23:52;100986.59;;;6.32;56.43
49627;BME280;35527;54.616;39.786;2023-05-07T03:27:06;101005.25;;;8.88;48.07
49627;BME280;35527;54.616;39.786;2023-05-07T03:30:11;101001.63;;;10.11;44.44
49627;BME280;35527;54.616;39.786;2023-05-07T03:33:14;100994.56;;;10.66;41.85
49627;BME280;35527;54.616;39.786;2023-05-07T03:36:16;100997.69;;;10.38;41.90
49627;BME280;35527;54.616;39.786;2023-05-07T03:39:21;101003.88;;;11.53;40.13
49627;BME280;35527;54.616;39.786;2023-05-07T03:42:24;101003.31;;;11.77;38.45
49627;BME280;35527;54.616;39.786;2023-05-07T03:45:29;101004.03;;;10.22;40.14
49627;BME280;35527;54.616;39.786;2023-05-07T03:48:41;101015.66;;;9.98;41.71
49627;BME280;35527;54.616;39.786;2023-05-07T03:51:48;101009.38;;;10.13;41.43
49627;BME280;35527;54.616;39.786;2023-05-07T03:54:53;101012.69;;;10.66;40.72
49627;BME280;35527;54.616;39.786;2023-05-07T03:57:57;101008.31;;;11.85;39.10
49627;BME280;35527;54.616;39.786;2023-05-07T04:01:05;101018.56;;;12.86;36.52
49627;BME280;35527;54.616;39.786;2023-05-07T04:04:13;101005.91;;;13.05;35.61
49627;BME280;35527;54.616;39.786;2023-05-07T04:07:16;101026.97;;;12.33;37.68
49627;BME280;35527;54.616;39.786;2023-05-07T04:10:23;101013.47;;;11.86;36.80
49627;BME280;35527;54.616;39.786;2023-05-07T04:13:30;101043.28;;;12.04;37.29
49627;BME280;35527;54.616;39.786;2023-05-07T04:16:37;101037.81;;;12.16;36.35
49627;BME280;35527;54.616;39.786;2023-05-07T04:19:40;101028.56;;;13.00;35.22
49627;BME280;35527;54.616;39.786;2023-05-07T04:22:49;101038.47;;;13.17;36.05
49627;BME280;35527;54.616;39.786;2023-05-07T04:25:53;101035.91;;;13.45;34.30
49627;BME280;35527;54.616;39.786;2023-05-07T04:29:07;101031.91;;;13.03;35.69
49627;BME280;35527;54.616;39.786;2023-05-07T04:32:14;101038.31;;;14.04;33.95
49627;BME280;35527;54.616;39.786;2023-05-07T04:35:19;101042.72;;;14.54;32.10
49627;BME280;35527;54.616;39.786;2023-05-07T04:38:24;101029.56;;;15.04;31.39
49627;BME280;35527;54.616;39.786;2023-05-07T04:41:30;101039.88;;;14.83;31.96
49627;BME280;35527;54.616;39.786;2023-05-07T04:44:34;101043.47;;;14.56;32.69
49627;BME280;35527;54.616;39.786;2023-05-07T04:47:40;101031.25;;;14.81;31.63
49627;BME280;35527;54.616;39.786;2023-05-07T04:50:43;101040.59;;;15.10;31.88
49627;BME280;35527;54.616;39.786;2023-05-07T04:53:48;101038.97;;;15.30;31.31
49627;BME280;35527;54.616;39.786;2023-05-07T04:56:54;101033.09;;;15.03;30.79
49627;BME280;35527;54.616;39.786;2023-05-07T04:59:59;101020.84;;;14.58;31.81
49627;BME280;35527;54.616;39.786;2023-05-07T05:03:02;101017.09;;;15.34;31.51
49627;BME280;35527;54.616;39.786;2023-05-07T05:06:07;101031.66;;;15.40;31.06
49627;BME280;35527;54.616;39.786;2023-05-07T05:09:11;101029.38;;;16.17;30.04
49627;BME280;35527;54.616;39.786;2023-05-07T05:12:17;101048.13;;;16.27;30.76
49627;BME280;35527;54.616;39.786;2023-05-07T05:15:20;101056.00;;;16.66;30.07
49627;BME280;35527;54.616;39.786;2023-05-07T05:18:27;101045.44;;;16.49;30.37
49627;BME280;35527;54.616;39.786;2023-05-07T05:21:31;101030.75;;;16.85;29.43
49627;BME280;35527;54.616;39.786;2023-05-07T05:24:41;101041.88;;;17.46;29.11
49627;BME280;35527;54.616;39.786;2023-05-07T05:27:44;101049.81;;;16.87;29.72
49627;BME280;35527;54.616;39.786;2023-05-07T05:30:57;101018.66;;;16.43;29.18
49627;BME280;35527;54.616;39.786;2023-05-07T05:34:05;101044.19;;;16.16;29.00
49627;BME280;35527;54.616;39.786;2023-05-07T05:37:13;101057.75;;;17.24;28.57
49627;BME280;35527;54.616;39.786;2023-05-07T05:40:21;101052.69;;;16.21;28.85
49627;BME280;35527;54.616;39.786;2023-05-07T05:43:36;101050.97;;;16.61;27.54
49627;BME280;35527;54.616;39.786;2023-05-07T05:46:39;101056.28;;;16.60;28.75
49627;BME280;35527;54.616;39.786;2023-05-07T05:49:46;101054.06;;;16.10;28.07
49627;BME280;35527;54.616;39.786;2023-05-07T05:52:51;101056.50;;;14.06;31.12
49627;BME280;35527;54.616;39.786;2023-05-07T05:55:55;101059.56;;;15.38;29.91
49627;BME280;35527;54.616;39.786;2023-05-07T05:58:59;101069.28;;;15.78;29.61
49627;BME280;35527;54.616;39.786;2023-05-07T06:02:04;101069.19;;;14.15;30.68
49627;BME280;35527;54.616;39.786;2023-05-07T06:05:09;101066.66;;;15.10;29.11
49627;BME280;35527;54.616;39.786;2023-05-07T06:08:14;101060.50;;;15.81;28.47
49627;BME280;35527;54.616;39.786;2023-05-07T06:11:19;101069.59;;;15.92;28.59
49627;BME280;35527;54.616;39.786;2023-05-07T06:14:26;101065.66;;;17.22;26.95
49627;BME280;35527;54.616;39.786;2023-05-07T06:17:30;101069.72;;;16.10;27.41
49627;BME280;35527;54.616;39.786;2023-05-07T06:20:35;101058.81;;;16.41;27.27
49627;BME280;35527;54.616;39.786;2023-05-07T06:23:44;101077.41;;;18.05;25.51
49627;BME280;35527;54.616;39.786;2023-05-07T06:26:50;101072.31;;;17.85;25.77
49627;BME280;35527;54.616;39.786;2023-05-07T06:29:53;101073.38;;;17.81;25.66
49627;BME280;35527;54.616;39.786;2023-05-07T06:32:59;101055.31;;;17.38;25.33
49627;BME280;35527;54.616;39.786;2023-05-07T06:36:02;101080.94;;;18.21;25.31
49627;BME280;35527;54.616;39.786;2023-05-07T06:39:07;101079.13;;;17.51;25.50
49627;BME280;35527;54.616;39.786;2023-05-07T06:42:10;101053.91;;;15.26;26.89
49627;BME280;35527;54.616;39.786;2023-05-07T06:45:23;101062.53;;;14.06;29.03
49627;BME280;35527;54.616;39.786;2023-05-07T06:48:29;101067.81;;;16.13;26.89
49627;BME280;35527;54.616;39.786;2023-05-07T06:51:39;101062.66;;;16.53;26.72
49627;BME280;35527;54.616;39.786;2023-05-07T06:54:42;101073.03;;;17.14;25.94
49627;BME280;35527;54.616;39.786;2023-05-07T06:57:50;101074.22;;;16.67;25.97
49627;BME280;35527;54.616;39.786;2023-05-07T07:00:54;101080.09;;;14.26;28.93
49627;BME280;35527;54.616;39.786;2023-05-07T07:03:59;101073.16;;;15.68;27.19
49627;BME280;35527;54.616;39.786;2023-05-07T07:07:05;101067.34;;;15.83;26.58
49627;BME280;35527;54.616;39.786;2023-05-07T07:10:12;101058.44;;;16.30;26.83
49627;BME280;35527;54.616;39.786;2023-05-07T07:13:15;101067.81;;;16.13;26.67
49627;BME280;35527;54.616;39.786;2023-05-07T07:16:20;101067.81;;;16.13;27.16
49627;BME280;35527;54.616;39.786;2023-05-07T07:19:26;101064.59;;;13.96;29.50
49627;BME280;35527;54.616;39.786;2023-05-07T07:22:31;101074.31;;;13.05;30.37
49627;BME280;35527;54.616;39.786;2023-05-07T07:25:35;101092.50;;;12.42;32.02
49627;BME280;35527;54.616;39.786;2023-05-07T07:28:44;101056.94;;;15.38;27.29
49627;BME280;35527;54.616;39.786;2023-05-07T07:31:49;101049.13;;;16.84;25.80
49627;BME280;35527;54.616;39.786;2023-05-07T07:34:55;101073.31;;;16.89;24.83
49627;BME280;35527;54.616;39.786;2023-05-07T07:37:58;101059.53;;;17.23;25.65
49627;BME280;35527;54.616;39.786;2023-05-07T07:41:03;101069.47;;;14.82;27.12
49627;BME280;35527;54.616;39.786;2023-05-07T07:44:10;101051.50;;;13.15;29.72
49627;BME280;35527;54.616;39.786;2023-05-07T07:47:27;101053.50;;;10.97;32.30
49627;BME280;35527;54.616;39.786;2023-05-07T07:50:32;101074.53;;;12.98;30.72
49627;BME280;35527;54.616;39.786;2023-05-07T07:53:51;101062.75;;;14.52;28.71
49627;BME280;35527;54.616;39.786;2023-05-07T07:56:54;101065.44;;;13.13;29.97
49627;BME280;35527;54.616;39.786;2023-05-07T07:59:59;101058.75;;;10.50;33.42
49627;BME280;35527;54.616;39.786;2023-05-07T08:03:09;101058.09;;;9.86;34.39
49627;BME280;35527;54.616;39.786;2023-05-07T08:06:16;101063.84;;;9.48;35.76
49627;BME280;35527;54.616;39.786;2023-05-07T08:09:19;101066.69;;;9.88;35.09
49627;BME280;35527;54.616;39.786;2023-05-07T08:12:30;101068.88;;;9.59;35.85
49627;BME280;35527;54.616;39.786;2023-05-07T08:15:34;101055.78;;;10.21;35.29
49627;BME280;35527;54.616;39.786;2023-05-07T08:18:41;101065.94;;;12.65;32.09
49627;BME280;35527;54.616;39.786;2023-05-07T08:21:45;101034.25;;;13.13;29.34
49627;BME280;35527;54.616;39.786;2023-05-07T08:24:51;101041.94;;;11.89;29.17
49627;BME280;35527;54.616;39.786;2023-05-07T08:27:56;101048.72;;;10.33;33.02
49627;BME280;35527;54.616;39.786;2023-05-07T08:31:06;101064.34;;;9.73;34.38
49627;BME280;35527;54.616;39.786;2023-05-07T08:34:12;101062.56;;;9.16;35.49
49627;BME280;35527;54.616;39.786;2023-05-07T08:37:19;101055.88;;;9.00;35.91
49627;BME280;35527;54.616;39.786;2023-05-07T08:40:25;101045.28;;;9.18;36.11
49627;BME280;35527;54.616;39.786;2023-05-07T08:43:32;101045.56;;;8.98;35.76
49627;BME280;35527;54.616;39.786;2023-05-07T08:46:36;101058.47;;;8.98;35.66
49627;BME280;35527;54.616;39.786;2023-05-07T08:49:40;101072.09;;;10.26;35.03
49627;BME280;35527;54.616;39.786;2023-05-07T08:52:44;101053.56;;;13.04;30.73
49627;BME280;35527;54.616;39.786;2023-05-07T08:55:49;101045.41;;;13.99;28.65
49627;BME280;35527;54.616;39.786;2023-05-07T08:58:53;101058.41;;;14.76;26.64
49627;BME280;35527;54.616;39.786;2023-05-07T09:02:04;101050.16;;;14.38;26.76
49627;BME280;35527;54.616;39.786;2023-05-07T09:05:13;101055.50;;;13.55;27.56
49627;BME280;35527;54.616;39.786;2023-05-07T09:08:25;101039.94;;;12.01;29.70
49627;BME280;35527;54.616;39.786;2023-05-07T09:11:33;101056.25;;;10.46;32.01
49627;BME280;35527;54.616;39.786;2023-05-07T09:14:40;101053.25;;;9.65;33.20
49627;BME280;35527;54.616;39.786;2023-05-07T09:17:44;101036.22;;;9.52;33.36
49627;BME280;35527;54.616;39.786;2023-05-07T09:20:50;101044.75;;;8.96;34.62
49627;BME280;35527;54.616;39.786;2023-05-07T09:23:57;101055.91;;;8.97;35.53
49627;BME280;35527;54.616;39.786;2023-05-07T09:27:10;101066.13;;;9.08;35.54
49627;BME280;35527;54.616;39.786;2023-05-07T09:30:22;101062.97;;;10.56;33.53
49627;BME280;35527;54.616;39.786;2023-05-07T09:33:28;101045.13;;;12.01;31.37
49627;BME280;35527;54.616;39.786;2023-05-07T09:36:32;101031.97;;;12.08;29.75
49627;BME280;35527;54.616;39.786;2023-05-07T09:39:44;101054.50;;;11.32;30.99
49627;BME280;35527;54.616;39.786;2023-05-07T09:43:17;101065.44;;;10.60;30.65
49627;BME280;35527;54.616;39.786;2023-05-07T09:46:30;101070.75;;;10.54;30.31
49627;BME280;35527;54.616;39.786;2023-05-07T09:49:39;101071.06;;;10.37;30.44
49627;BME280;35527;54.616;39.786;2023-05-07T09:52:47;101062.28;;;11.69;30.46
49627;BME280;35527;54.616;39.786;2023-05-07T09:55:52;101051.69;;;11.41;31.25
49627;BME280;35527;54.616;39.786;2023-05-07T09:59:03;101064.31;;;10.29;31.19
49627;BME280;35527;54.616;39.786;2023-05-07T10:02:09;101062.19;;;10.00;32.39
49627;BME280;35527;54.616;39.786;2023-05-07T10:05:22;101081.00;;;9.52;33.22
49627;BME280;35527;54.616;39.786;2023-05-07T10:08:30;101071.53;;;9.53;33.22
49627;BME280;35527;54.616;39.786;2023-05-07T10:11:36;101075.91;;;10.03;32.35
49627;BME280;35527;54.616;39.786;2023-05-07T10:14:40;101050.66;;;10.18;32.45
49627;BME280;35527;54.616;39.786;2023-05-07T10:17:44;101069.31;;;10.38;32.68
49627;BME280;35527;54.616;39.786;2023-05-07T10:20:48;101060.31;;;10.59;31.57
49627;BME280;35527;54.616;39.786;2023-05-07T10:24:04;101029.72;;;10.34;31.96
49627;BME280;35527;54.616;39.786;2023-05-07T10:27:12;101063.47;;;10.25;32.37
49627;BME280;35527;54.616;39.786;2023-05-07T10:30:26;101062.72;;;9.66;32.58
49627;BME280;35527;54.616;39.786;2023-05-07T10:33:37;101067.75;;;10.29;32.59
49627;BME280;35527;54.616;39.786;2023-05-07T10:36:44;101060.44;;;10.96;31.07
49627;BME280;35527;54.616;39.786;2023-05-07T10:39:48;101074.81;;;11.10;30.79
49627;BME280;35527;54.616;39.786;2023-05-07T10:43:05;101015.09;;;10.75;29.64
49627;BME280;35527;54.616;39.786;2023-05-07T10:46:23;101041.22;;;11.83;29.16
49627;BME280;35527;54.616;39.786;2023-05-07T10:56:33;101056.88;;;11.78;30.13
49627;BME280;35527;54.616;39.786;2023-05-07T10:59:47;101039.88;;;11.66;30.65
49627;BME280;35527;54.616;39.786;2023-05-07T11:06:15;101054.66;;;12.33;27.84
49627;BME280;35527;54.616;39.786;2023-05-07T11:13:00;101058.03;;;12.69;27.88
49627;BME280;35527;54.616;39.786;2023-05-07T11:16:33;101063.94;;;13.05;28.17
49627;BME280;35527;54.616;39.786;2023-05-07T11:19:53;101057.16;;;12.37;28.09
49627;BME280;35527;54.616;39.786;2023-05-07T11:26:51;101058.25;;;12.29;27.86
49627;BME280;35527;54.616;39.786;2023-05-07T11:29:58;101061.53;;;12.68;27.81
49627;BME280;35527;54.616;39.786;2023-05-07T11:33:02;101065.25;;;12.58;28.21
49627;BME280;35527;54.616;39.786;2023-05-07T11:36:19;101055.41;;;12.38;28.14
49627;BME280;35527;54.616;39.786;2023-05-07T11:39:32;101038.47;;;11.90;28.62
49627;BME280;35527;54.616;39.786;2023-05-07T11:42:38;101058.63;;;11.78;29.26
49627;BME280;35527;54.616;39.786;2023-05-07T11:45:41;101074.41;;;12.06;27.74
49627;BME280;35527;54.616;39.786;2023-05-07T11:48:47;101065.56;;;11.77;27.91
49627;BME280;35527;54.616;39.786;2023-05-07T11:51:50;101066.56;;;11.33;27.43
49627;BME280;35527;54.616;39.786;2023-05-07T11:54:57;101071.72;;;10.92;28.42
49627;BME280;35527;54.616;39.786;2023-05-07T11:58:00;101022.78;;;10.36;29.26
49627;BME280;35527;54.616;39.786;2023-05-07T12:01:08;101051.78;;;10.52;29.98
49627;BME280;35527;54.616;39.786;2023-05-07T12:04:13;101054.38;;;10.52;30.28
49627;BME280;35527;54.616;39.786;2023-05-07T12:07:20;101072.78;;;10.37;29.98
49627;BME280;35527;54.616;39.786;2023-05-07T12:10:23;101071.16;;;10.31;30.36
49627;BME280;35527;54.616;39.786;2023-05-07T12:13:28;101068.88;;;10.61;30.07
49627;BME280;35527;54.616;39.786;2023-05-07T12:16:31;101051.19;;;10.40;30.76
49627;BME280;35527;54.616;39.786;2023-05-07T12:19:37;101072.69;;;9.89;31.07
49627;BME280;35527;54.616;39.786;2023-05-07T12:22:43;101058.53;;;9.59;32.07
49627;BME280;35527;54.616;39.786;2023-05-07T12:25:45;101063.38;;;9.20;32.39
49627;BME280;35527;54.616;39.786;2023-05-07T12:28:52;101072.69;;;9.32;32.79
49627;BME280;35527;54.616;39.786;2023-05-07T12:31:58;101076.50;;;9.66;32.50
49627;BME280;35527;54.616;39.786;2023-05-07T12:35:01;101072.09;;;10.24;31.08
49627;BME280;35527;54.616;39.786;2023-05-07T12:38:13;101069.25;;;10.88;30.43
49627;BME280;35527;54.616;39.786;2023-05-07T12:41:17;101071.81;;;11.30;29.04
49627;BME280;35527;54.616;39.786;2023-05-07T12:44:32;101084.72;;;10.91;28.79
49627;BME280;35527;54.616;39.786;2023-05-07T12:47:35;101052.34;;;10.20;30.74
49627;BME280;35527;54.616;39.786;2023-05-07T12:50:39;101068.91;;;10.10;30.75
49627;BME280;35527;54.616;39.786;2023-05-07T12:53:42;101069.06;;;10.01;31.52
49627;BME280;35527;54.616;39.786;2023-05-07T12:56:48;101064.56;;;10.13;30.25
49627;BME280;35527;54.616;39.786;2023-05-07T12:59:51;101064.72;;;10.01;30.50
49627;BME280;35527;54.616;39.786;2023-05-07T13:02:54;101055.00;;;10.15;30.71
49627;BME280;35527;54.616;39.786;2023-05-07T13:06:05;101083.34;;;10.23;30.24
49627;BME280;35527;54.616;39.786;2023-05-07T13:09:09;101082.59;;;9.62;31.17
49627;BME280;35527;54.616;39.786;2023-05-07T13:12:12;101075.25;;;9.32;30.88
49627;BME280;35527;54.616;39.786;2023-05-07T13:15:17;101075.16;;;9.39;31.19
49627;BME280;35527;54.616;39.786;2023-05-07T13:18:20;101079.41;;;9.45;31.19
49627;BME280;35527;54.616;39.786;2023-05-07T13:21:24;101075.91;;;9.47;31.52
49627;BME280;35527;54.616;39.786;2023-05-07T13:24:28;101080.50;;;9.27;31.82
49627;BME280;35527;54.616;39.786;2023-05-07T13:27:30;101058.97;;;9.28;31.81
49627;BME280;35527;54.616;39.786;2023-05-07T13:30:34;101052.75;;;9.41;31.86
49627;BME280;35527;54.616;39.786;2023-05-07T13:33:37;101059.28;;;9.65;31.51
49627;BME280;35527;54.616;39.786;2023-05-07T13:36:39;101057.84;;;9.46;31.11
49627;BME280;35527;54.616;39.786;2023-05-07T13:39:44;101052.63;;;9.51;30.95
49627;BME280;35527;54.616;39.786;2023-05-07T13:42:49;101075.97;;;9.44;30.31
49627;BME280;35527;54.616;39.786;2023-05-07T13:45:53;101067.59;;;9.24;30.67
49627;BME280;35527;54.616;39.786;2023-05-07T13:48:56;101061.16;;;8.91;31.42
49627;BME280;35527;54.616;39.786;2023-05-07T13:52:00;101078.31;;;8.96;31.49
49627;BME280;35527;54.616;39.786;2023-05-07T13:55:06;101075.56;;;9.10;31.70
49627;BME280;35527;54.616;39.786;2023-05-07T13:58:09;101078.44;;;8.87;31.30
49627;BME280;35527;54.616;39.786;2023-05-07T14:01:12;101077.75;;;8.68;31.74
49627;BME280;35527;54.616;39.786;2023-05-07T14:04:17;101083.06;;;8.54;31.91
49627;BME280;35527;54.616;39.786;2023-05-07T14:07:27;101087.34;;;8.55;31.94
49627;BME280;35527;54.616;39.786;2023-05-07T14:10:38;101073.75;;;8.40;32.89
49627;BME280;35527;54.616;39.786;2023-05-07T14:13:40;101077.31;;;8.25;32.51
49627;BME280;35527;54.616;39.786;2023-05-07T14:16:44;101080.81;;;8.19;33.68
49627;BME280;35527;54.616;39.786;2023-05-07T14:19:49;101080.81;;;8.15;33.34
49627;BME280;35527;54.616;39.786;2023-05-07T14:22:52;101078.34;;;8.07;33.82
49627;BME280;35527;54.616;39.786;2023-05-07T14:25:55;101061.28;;;7.90;33.40
49627;BME280;35527;54.616;39.786;2023-05-07T14:29:03;101082.56;;;8.16;32.82
49627;BME280;35527;54.616;39.786;2023-05-07T14:32:09;101073.72;;;8.41;32.92
49627;BME280;35527;54.616;39.786;2023-05-07T14:35:16;101069.41;;;8.45;33.41
49627;BME280;35527;54.616;39.786;2023-05-07T14:38:26;101075.47;;;8.42;32.88
49627;BME280;35527;54.616;39.786;2023-05-07T14:41:38;101067.78;;;8.31;32.34
49627;BME280;35527;54.616;39.786;2023-05-07T14:44:42;101053.28;;;8.18;32.67
49627;BME280;35527;54.616;39.786;2023-05-07T14:47:49;101077.41;;;8.14;32.80
49627;BME280;35527;54.616;39.786;2023-05-07T14:50:52;101062.06;;;7.97;33.08
49627;BME280;35527;54.616;39.786;2023-05-07T14:53:56;101053.56;;;7.86;32.65
49627;BME280;35527;54.616;39.786;2023-05-07T14:57:00;101059.59;;;7.85;32.64
49627;BME280;35527;54.616;39.786;2023-05-07T15:00:04;101073.28;;;7.92;33.51
49627;BME280;35527;54.616;39.786;2023-05-07T15:03:08;101071.47;;;8.03;32.96
49627;BME280;35527;54.616;39.786;2023-05-07T15:06:17;101074.72;;;8.23;32.76
49627;BME280;35527;54.616;39.786;2023-05-07T15:09:22;101046.38;;;8.25;33.00
49627;BME280;35527;54.616;39.786;2023-05-07T15:12:27;101070.16;;;8.54;33.07
49627;BME280;35527;54.616;39.786;2023-05-07T15:15:31;101071.88;;;8.59;32.49
49627;BME280;35527;54.616;39.786;2023-05-07T15:18:36;101072.56;;;8.71;31.89
49627;BME280;35527;54.616;39.786;2023-05-07T15:21:40;101057.03;;;8.76;32.20
49627;BME280;35527;54.616;39.786;2023-05-07T15:24:44;101052.75;;;8.73;31.47
49627;BME280;35527;54.616;39.786;2023-05-07T15:27:50;101078.53;;;8.75;33.01
49627;BME280;35527;54.616;39.786;2023-05-07T15:30:55;101070.19;;;8.51;30.97
49627;BME280;35527;54.616;39.786;2023-05-07T15:33:59;101064.31;;;8.35;31.44
49627;BME280;35527;54.616;39.786;2023-05-07T15:37:03;101054.97;;;8.22;32.18
49627;BME280;35527;54.616;39.786;2023-05-07T15:40:07;101055.00;;;8.19;32.84
49627;BME280;35527;54.616;39.786;2023-05-07T15:43:15;101071.16;;;8.41;32.69
49627;BME280;35527;54.616;39.786;2023-05-07T15:46:20;101071.16;;;8.43;33.70
49627;BME280;35527;54.616;39.786;2023-05-07T15:49:23;101070.41;;;8.30;33.84
49627;BME280;35527;54.616;39.786;2023-05-07T15:52:27;101059.34;;;8.14;33.03
49627;BME280;35527;54.616;39.786;2023-05-07T15:55:31;101061.25;;;7.92;33.35
49627;BME280;35527;54.616;39.786;2023-05-07T15:58:35;101073.28;;;7.93;33.92
49627;BME280;35527;54.616;39.786;2023-05-07T16:01:38;101074.22;;;7.78;34.03
49627;BME280;35527;54.616;39.786;2023-05-07T16:04:42;101054.63;;;7.57;34.54
49627;BME280;35527;54.616;39.786;2023-05-07T16:07:47;101083.81;;;7.58;34.19
49627;BME280;35527;54.616;39.786;2023-05-07T16:10:51;101041.13;;;7.25;34.39
49627;BME280;35527;54.616;39.786;2023-05-07T16:13:58;101058.22;;;7.33;34.46
49627;BME280;35527;54.616;39.786;2023-05-07T16:17:03;101053.16;;;7.16;34.06
49627;BME280;35527;54.616;39.786;2023-05-07T16:20:10;101089.97;;;7.32;35.02
49627;BME280;35527;54.616;39.786;2023-05-07T16:23:14;101092.59;;;7.28;34.85
49627;BME280;35527;54.616;39.786;2023-05-07T16:26:18;101089.16;;;7.21;34.46